Time;durP1;ratioP1;P1;durP2;ratioP2;P2;SDS_P1;SDS_P2;PMS_P1;PMS_P2;Temp;Humidity;BMP_temperature;BMP_pressure;BME280_temperature;BME280_humidity;BME280_pressure;Samples;Min_cycle;Max_cycle;Signal;HPM_P1;HPM_P2
2023/03/07 00:02:22;;;;;;;;;;;4.80;79.20;;;;;;5089178;28;19973;-77
2023/03/07 00:04:50;;;;;;;;;;;4.80;79.10;;;;;;5092113;28;19981;-79
2023/03/07 00:07:17;;;;;;;;;;;4.80;79.10;;;;;;5097339;28;19961;-76
2023/03/07 00:09:43;;;;;;;;;;;4.80;79.10;;;;;;5094156;28;19928;-76
2023/03/07 00:12:10;;;;;;;;;;;4.80;79.20;;;;;;5093798;28;19928;-78
2023/03/07 00:14:37;;;;;;;;;;;4.80;79.20;;;;;;5094077;28;19927;-79
2023/03/07 00:17:04;;;;;;;;;;;4.70;79.20;;;;;;5093213;28;20653;-77
2023/03/07 00:19:30;;;;;;;;;;;4.80;79.20;;;;;;5094005;27;19939;-78
2023/03/07 00:21:58;;;;;;;;;;;4.80;79.30;;;;;;5099275;27;19928;-78
2023/03/07 00:24:25;;;;;;;;;;;4.80;79.20;;;;;;5099299;28;20639;-77
2023/03/07 00:26:51;;;;;;;;;;;4.70;79.00;;;;;;5097613;28;19924;-77
2023/03/07 00:29:18;;;;;;;;;;;4.80;79.10;;;;;;5096601;28;20209;-76
2023/03/07 00:31:44;;;;;;;;;;;4.70;79.00;;;;;;5097338;27;19931;-77
2023/03/07 00:34:11;;;;;;;;;;;4.70;79.00;;;;;;5099224;28;19928;-78
2023/03/07 00:36:37;;;;;;;;;;;4.70;79.00;;;;;;5105778;28;19939;-77
2023/03/07 00:39:06;;;;;;;;;;;4.70;79.00;;;;;;5100925;28;19928;-77
2023/03/07 00:41:33;;;;;;;;;;;4.70;79.00;;;;;;5095717;28;19928;-77
2023/03/07 00:44:00;;;;;;;;;;;4.70;79.00;;;;;;5096528;27;19928;-78
2023/03/07 00:46:27;;;;;;;;;;;4.70;79.10;;;;;;5098321;27;20013;-77
2023/03/07 00:48:54;;;;;;;;;;;4.70;79.00;;;;;;5097903;27;19970;-79
2023/03/07 00:51:21;;;;;;;;;;;4.70;79.10;;;;;;5096690;28;19928;-76
2023/03/07 00:53:48;;;;;;;;;;;4.70;79.10;;;;;;5098532;27;19939;-75
2023/03/07 00:56:17;;;;;;;;;;;4.70;79.10;;;;;;5103844;28;19928;-77
2023/03/07 00:58:43;;;;;;;;;;;4.70;79.20;;;;;;5094215;27;19932;-77
2023/03/07 01:01:11;;;;;;;;;;;4.70;79.20;;;;;;5096346;28;20380;-76
2023/03/07 01:03:38;;;;;;;;;;;4.70;79.80;;;;;;5091796;28;19928;-77
2023/03/07 01:06:05;;;;;;;;;;;4.80;79.20;;;;;;5097838;28;19928;-78
2023/03/07 01:08:32;;;;;;;;;;;4.70;79.30;;;;;;5100335;28;19934;-77
2023/03/07 01:10:59;;;;;;;;;;;4.70;79.30;;;;;;5092429;28;19928;-76
2023/03/07 01:13:27;;;;;;;;;;;4.70;79.40;;;;;;5092167;28;20400;-77
2023/03/07 01:15:54;;;;;;;;;;;4.70;79.40;;;;;;5092234;28;19928;-78
2023/03/07 01:18:20;;;;;;;;;;;4.70;79.40;;;;;;5093780;28;19935;-77
2023/03/07 01:20:47;;;;;;;;;;;4.70;79.50;;;;;;5099038;28;19931;-76
2023/03/07 01:23:13;;;;;;;;;;;4.70;79.50;;;;;;5094885;28;19935;-77
2023/03/07 01:25:40;;;;;;;;;;;4.70;79.60;;;;;;5096324;28;19928;-76
2023/03/07 01:28:07;;;;;;;;;;;4.70;79.70;;;;;;5092065;28;21401;-77
2023/03/07 01:30:35;;;;;;;;;;;4.70;79.80;;;;;;5090054;27;19928;-78
2023/03/07 01:33:02;;;;;;;;;;;4.70;80.00;;;;;;5070569;28;19932;-76
2023/03/07 01:35:29;;;;;;;;;;;4.70;80.10;;;;;;5077042;28;19932;-76
2023/03/07 01:37:56;;;;;;;;;;;4.70;80.30;;;;;;5079008;28;19924;-75
2023/03/07 01:40:23;;;;;;;;;;;4.70;80.40;;;;;;5079285;28;19943;-77
2023/03/07 01:42:51;;;;;;;;;;;4.70;80.50;;;;;;5075729;28;19937;-76
2023/03/07 01:45:37;;;;;;;;;;;4.70;80.70;;;;;;5070870;28;20446;-76
2023/03/07 01:48:05;;;;;;;;;;;4.70;80.80;;;;;;5082753;28;19928;-76
2023/03/07 01:50:31;;;;;;;;;;;4.60;80.90;;;;;;5081527;28;20313;-75
2023/03/07 01:52:59;;;;;;;;;;;4.60;81.00;;;;;;5084567;28;19928;-76
2023/03/07 01:55:27;;;;;;;;;;;4.70;81.20;;;;;;5083177;28;19924;-77
2023/03/07 01:57:54;;;;;;;;;;;4.60;81.20;;;;;;5084650;28;20374;-78
2023/03/07 02:00:27;;;;;;;;;;;4.60;81.30;;;;;;5081683;28;19928;-77
2023/03/07 02:02:59;;;;;;;;;;;4.60;81.50;;;;;;5021930;28;1731744;-77
2023/03/07 02:05:29;;;;;;;;;;;4.60;81.60;;;;;;5083999;28;19959;-75
2023/03/07 02:07:56;;;;;;;;;;;4.60;81.90;;;;;;5084243;28;20306;-77
2023/03/07 02:10:24;;;;;;;;;;;4.60;82.20;;;;;;5082887;28;19931;-75
2023/03/07 02:12:51;;;;;;;;;;;4.60;82.50;;;;;;5082590;28;19950;-76
2023/03/07 02:15:18;;;;;;;;;;;4.60;82.60;;;;;;5084325;27;19959;-77
2023/03/07 02:17:45;;;;;;;;;;;4.60;82.80;;;;;;5083994;28;19935;-76
2023/03/07 02:20:22;;;;;;;;;;;4.60;82.90;;;;;;5084183;28;19935;-76
2023/03/07 02:22:50;;;;;;;;;;;4.60;83.10;;;;;;5079872;28;20317;-78
2023/03/07 02:25:19;;;;;;;;;;;4.50;83.10;;;;;;5082089;28;19935;-77
2023/03/07 02:27:48;;;;;;;;;;;4.60;83.40;;;;;;5085749;28;19928;-76
2023/03/07 02:30:15;;;;;;;;;;;4.50;83.60;;;;;;5083993;28;19932;-79
2023/03/07 02:32:41;;;;;;;;;;;4.50;83.80;;;;;;5068761;28;19924;-76
2023/03/07 02:35:11;;;;;;;;;;;4.50;84.00;;;;;;5081799;28;20312;-77
2023/03/07 02:37:38;;;;;;;;;;;4.50;84.20;;;;;;5079605;28;19932;-76
2023/03/07 02:40:07;;;;;;;;;;;4.50;84.30;;;;;;5076782;28;19928;-76
2023/03/07 02:42:37;;;;;;;;;;;4.50;84.40;;;;;;5073963;28;19934;-76
2023/03/07 02:45:06;;;;;;;;;;;4.50;84.50;;;;;;5074065;28;20391;-78
2023/03/07 02:47:33;;;;;;;;;;;4.50;84.50;;;;;;5071734;28;19951;-75
2023/03/07 02:49:59;;;;;;;;;;;4.50;84.60;;;;;;5074108;28;20585;-77
2023/03/07 02:52:27;;;;;;;;;;;4.50;84.60;;;;;;5069824;28;20321;-76
2023/03/07 02:54:53;;;;;;;;;;;4.50;84.70;;;;;;5073433;28;20115;-77
2023/03/07 02:57:20;;;;;;;;;;;4.50;84.70;;;;;;5074141;28;19928;-76
2023/03/07 02:59:46;;;;;;;;;;;4.50;84.80;;;;;;5067808;28;19935;-78
2023/03/07 03:02:14;;;;;;;;;;;4.50;84.90;;;;;;5073031;28;19936;-75
2023/03/07 03:04:41;;;;;;;;;;;4.50;84.90;;;;;;5068380;28;19932;-76
2023/03/07 03:07:07;;;;;;;;;;;4.50;84.90;;;;;;5077964;28;19932;-77
2023/03/07 03:09:34;;;;;;;;;;;4.50;85.00;;;;;;5070787;28;19932;-74
2023/03/07 03:12:00;;;;;;;;;;;4.50;85.00;;;;;;5069329;28;19932;-76
2023/03/07 03:14:27;;;;;;;;;;;4.40;85.00;;;;;;5074703;28;20458;-76
2023/03/07 03:16:54;;;;;;;;;;;4.40;85.00;;;;;;5079324;28;19981;-76
2023/03/07 03:19:22;;;;;;;;;;;4.40;85.00;;;;;;5077662;28;19933;-75
2023/03/07 03:21:48;;;;;;;;;;;4.40;85.00;;;;;;5082560;28;20034;-75
2023/03/07 03:24:15;;;;;;;;;;;4.40;85.70;;;;;;5076784;28;19947;-76
2023/03/07 03:26:41;;;;;;;;;;;4.40;85.00;;;;;;5076572;28;19928;-76
2023/03/07 03:29:08;;;;;;;;;;;4.40;85.00;;;;;;5077164;28;20012;-76
2023/03/07 03:31:35;;;;;;;;;;;4.40;85.00;;;;;;5075390;28;19928;-76
2023/03/07 03:34:01;;;;;;;;;;;4.40;85.00;;;;;;5067951;28;20554;-75
2023/03/07 03:36:29;;;;;;;;;;;4.40;85.00;;;;;;5071622;28;19954;-76
2023/03/07 03:38:56;;;;;;;;;;;4.40;85.00;;;;;;5076280;28;19981;-76
2023/03/07 03:41:23;;;;;;;;;;;4.40;84.90;;;;;;5068362;28;19964;-75
2023/03/07 03:43:50;;;;;;;;;;;4.40;84.90;;;;;;5073398;28;19928;-76
2023/03/07 03:46:18;;;;;;;;;;;4.40;84.90;;;;;;5086490;28;20362;-78
2023/03/07 03:48:45;;;;;;;;;;;4.40;84.80;;;;;;5094029;27;19939;-75
2023/03/07 03:51:13;;;;;;;;;;;4.30;84.70;;;;;;5094667;27;19931;-76
2023/03/07 03:53:41;;;;;;;;;;;4.30;84.70;;;;;;5089204;28;20015;-76
2023/03/07 03:56:10;;;;;;;;;;;4.40;84.70;;;;;;5089972;28;20706;-75
2023/03/07 03:58:37;;;;;;;;;;;4.40;84.70;;;;;;5087246;28;19928;-76
2023/03/07 04:01:06;;;;;;;;;;;4.30;84.60;;;;;;5086559;28;19934;-75
2023/03/07 04:03:33;;;;;;;;;;;4.40;84.60;;;;;;5088338;28;19928;-75
2023/03/07 04:06:03;;;;;;;;;;;4.30;84.50;;;;;;5090607;28;19974;-77
2023/03/07 04:08:30;;;;;;;;;;;4.40;84.50;;;;;;5095930;28;20571;-80
2023/03/07 04:10:58;;;;;;;;;;;4.30;84.50;;;;;;5091587;28;19950;-76
2023/03/07 04:13:24;;;;;;;;;;;4.30;84.40;;;;;;5092146;28;19928;-78
2023/03/07 04:15:53;;;;;;;;;;;4.40;84.50;;;;;;5095278;28;19933;-76
2023/03/07 04:18:19;;;;;;;;;;;4.40;84.50;;;;;;5090756;28;20414;-75
2023/03/07 04:20:47;;;;;;;;;;;4.30;84.40;;;;;;5091855;28;19950;-75
2023/03/07 04:23:13;;;;;;;;;;;4.30;84.30;;;;;;5090271;28;19928;-76
2023/03/07 04:25:40;;;;;;;;;;;4.30;84.30;;;;;;5092694;28;20731;-77
2023/03/07 04:28:08;;;;;;;;;;;4.40;84.30;;;;;;5090563;28;19928;-76
2023/03/07 04:30:34;;;;;;;;;;;4.30;84.30;;;;;;5091902;28;20359;-76
2023/03/07 04:33:01;;;;;;;;;;;4.30;84.30;;;;;;5085830;28;19940;-76
2023/03/07 04:35:27;;;;;;;;;;;4.40;84.30;;;;;;5093101;28;19935;-77
2023/03/07 04:37:54;;;;;;;;;;;4.30;84.20;;;;;;5095688;28;19927;-76
2023/03/07 04:40:20;;;;;;;;;;;4.30;84.20;;;;;;5097155;28;19928;-76
2023/03/07 04:42:47;;;;;;;;;;;4.30;84.20;;;;;;5103731;28;19935;-76
2023/03/07 04:45:15;;;;;;;;;;;4.30;84.20;;;;;;5088965;28;19932;-76
2023/03/07 04:47:41;;;;;;;;;;;4.40;84.20;;;;;;5089695;28;19985;-76
2023/03/07 04:50:08;;;;;;;;;;;4.30;84.10;;;;;;5088861;28;19932;-76
2023/03/07 04:52:35;;;;;;;;;;;4.30;84.10;;;;;;5090687;28;19935;-76
2023/03/07 04:55:01;;;;;;;;;;;4.30;84.10;;;;;;5097227;28;20300;-76
2023/03/07 04:57:28;;;;;;;;;;;4.30;84.10;;;;;;5094304;28;19931;-76
2023/03/07 04:59:54;;;;;;;;;;;4.30;84.10;;;;;;5099327;28;20421;-79
2023/03/07 05:02:22;;;;;;;;;;;4.30;84.00;;;;;;5093130;28;19973;-78
2023/03/07 05:04:49;;;;;;;;;;;4.40;84.00;;;;;;5095083;28;19939;-80
2023/03/07 05:07:15;;;;;;;;;;;4.40;84.00;;;;;;5094613;28;19923;-75
2023/03/07 05:09:42;;;;;;;;;;;4.30;83.90;;;;;;5093088;28;20429;-76
2023/03/07 05:12:08;;;;;;;;;;;4.30;83.80;;;;;;5093220;27;20004;-75
2023/03/07 05:14:35;;;;;;;;;;;4.30;83.80;;;;;;5093830;28;19932;-75
2023/03/07 05:17:01;;;;;;;;;;;4.30;83.80;;;;;;5096718;28;19931;-77
2023/03/07 05:19:29;;;;;;;;;;;4.40;83.70;;;;;;5096950;27;19996;-74
2023/03/07 05:21:56;;;;;;;;;;;4.40;83.50;;;;;;5100324;27;19951;-77
2023/03/07 05:24:22;;;;;;;;;;;4.40;83.30;;;;;;5097017;27;19927;-75
2023/03/07 05:26:49;;;;;;;;;;;4.30;83.20;;;;;;5099986;28;19932;-75
2023/03/07 05:29:15;;;;;;;;;;;4.30;83.00;;;;;;5093564;27;19928;-75
2023/03/07 05:31:42;;;;;;;;;;;4.30;82.90;;;;;;5094775;28;20477;-75
2023/03/07 05:34:09;;;;;;;;;;;4.30;83.40;;;;;;5098170;27;19931;-77
2023/03/07 05:36:37;;;;;;;;;;;4.30;82.70;;;;;;5094765;28;19928;-75
2023/03/07 05:39:04;;;;;;;;;;;4.30;82.40;;;;;;5101258;28;19928;-75
2023/03/07 05:41:30;;;;;;;;;;;4.30;82.30;;;;;;5100857;28;19936;-75
2023/03/07 05:43:57;;;;;;;;;;;4.30;82.20;;;;;;5097219;28;19947;-75
2023/03/07 05:46:24;;;;;;;;;;;4.30;82.10;;;;;;5094575;28;19927;-76
2023/03/07 05:48:50;;;;;;;;;;;4.30;82.10;;;;;;5099570;27;19927;-75
2023/03/07 05:51:17;;;;;;;;;;;4.30;82.10;;;;;;5092196;28;19928;-77
2023/03/07 05:53:45;;;;;;;;;;;4.30;82.10;;;;;;5095109;27;19984;-75
2023/03/07 05:56:11;;;;;;;;;;;4.30;82.10;;;;;;5092178;28;20542;-76
2023/03/07 05:58:38;;;;;;;;;;;4.30;82.00;;;;;;5091027;28;19936;-76
2023/03/07 06:01:05;;;;;;;;;;;4.30;82.00;;;;;;5096028;28;19985;-75
2023/03/07 06:03:31;;;;;;;;;;;4.30;81.90;;;;;;5086793;28;19932;-76
2023/03/07 06:05:58;;;;;;;;;;;4.30;81.70;;;;;;5101952;28;19928;-75
2023/03/07 06:08:24;;;;;;;;;;;4.30;81.70;;;;;;5095657;28;19927;-78
2023/03/07 06:10:53;;;;;;;;;;;4.30;81.70;;;;;;5087382;28;19989;-75
2023/03/07 06:13:21;;;;;;;;;;;4.30;81.70;;;;;;5093730;28;20360;-75
2023/03/07 06:15:48;;;;;;;;;;;4.30;81.60;;;;;;5091971;27;20366;-76
2023/03/07 06:18:15;;;;;;;;;;;4.30;81.40;;;;;;5090394;28;20354;-76
2023/03/07 06:20:41;;;;;;;;;;;4.30;81.30;;;;;;5089216;28;19928;-76
2023/03/07 06:23:08;;;;;;;;;;;4.30;81.30;;;;;;5087470;27;19988;-76
2023/03/07 06:25:34;;;;;;;;;;;4.30;81.20;;;;;;5090610;28;20534;-75
2023/03/07 06:28:02;;;;;;;;;;;4.30;81.20;;;;;;5095594;28;19977;-75
2023/03/07 06:30:29;;;;;;;;;;;4.30;81.10;;;;;;5091544;28;19981;-77
2023/03/07 06:32:55;;;;;;;;;;;4.30;79.80;;;;;;5098197;28;19927;-76
2023/03/07 06:35:22;;;;;;;;;;;4.40;79.60;;;;;;5091679;28;20153;-76
2023/03/07 06:37:50;;;;;;;;;;;4.30;79.60;;;;;;5092632;28;20294;-76
2023/03/07 06:40:16;;;;;;;;;;;4.40;79.80;;;;;;5091995;28;19934;-76
2023/03/07 06:42:43;;;;;;;;;;;4.30;79.90;;;;;;5094981;28;19968;-77
2023/03/07 06:45:11;;;;;;;;;;;4.30;79.90;;;;;;5096761;28;19936;-77
2023/03/07 06:47:37;;;;;;;;;;;4.40;79.90;;;;;;5095791;28;20457;-77
2023/03/07 06:50:04;;;;;;;;;;;4.30;79.80;;;;;;5091046;28;19932;-77
2023/03/07 06:52:31;;;;;;;;;;;4.30;80.00;;;;;;5082674;28;19927;-78
2023/03/07 06:54:57;;;;;;;;;;;4.40;80.20;;;;;;5083094;28;19927;-76
2023/03/07 06:57:24;;;;;;;;;;;4.30;80.10;;;;;;5088582;28;19932;-78
2023/03/07 06:59:50;;;;;;;;;;;4.30;80.00;;;;;;5080052;28;19928;-78
2023/03/07 07:02:18;;;;;;;;;;;4.30;80.10;;;;;;5083264;28;20430;-79
2023/03/07 07:04:45;;;;;;;;;;;4.40;81.00;;;;;;5081090;28;20410;-77
2023/03/07 07:07:11;;;;;;;;;;;4.30;80.20;;;;;;5084153;28;19935;-77
2023/03/07 07:09:38;;;;;;;;;;;4.30;80.20;;;;;;5085539;28;20279;-76
2023/03/07 07:12:05;;;;;;;;;;;4.40;80.20;;;;;;5087896;28;19984;-76
2023/03/07 07:14:32;;;;;;;;;;;4.40;80.10;;;;;;5093701;28;19938;-77
2023/03/07 07:16:58;;;;;;;;;;;4.40;80.00;;;;;;5087927;28;20038;-77
2023/03/07 07:19:26;;;;;;;;;;;4.40;79.90;;;;;;5084010;28;19977;-77
2023/03/07 07:21:53;;;;;;;;;;;4.40;79.80;;;;;;5085330;28;19928;-76
2023/03/07 07:24:20;;;;;;;;;;;4.40;79.70;;;;;;5089470;27;20781;-77
2023/03/07 07:26:46;;;;;;;;;;;4.40;79.70;;;;;;5086325;28;19931;-76
2023/03/07 07:29:13;;;;;;;;;;;4.40;79.70;;;;;;5090025;28;19940;-78
2023/03/07 07:31:39;;;;;;;;;;;4.50;79.60;;;;;;5085409;28;19935;-79
2023/03/07 07:34:06;;;;;;;;;;;4.40;79.40;;;;;;5094718;27;19927;-78
2023/03/07 07:36:33;;;;;;;;;;;4.50;79.40;;;;;;5091668;27;20742;-78
2023/03/07 07:39:02;;;;;;;;;;;4.50;79.40;;;;;;5100129;27;19993;-76
2023/03/07 07:41:29;;;;;;;;;;;4.50;79.30;;;;;;5091663;28;19932;-78
2023/03/07 07:43:55;;;;;;;;;;;4.50;79.10;;;;;;5096834;28;19923;-76
2023/03/07 07:46:22;;;;;;;;;;;4.50;79.00;;;;;;5100949;28;19989;-76
2023/03/07 07:48:48;;;;;;;;;;;4.50;79.00;;;;;;5097505;27;20347;-76
2023/03/07 07:51:15;;;;;;;;;;;4.60;79.00;;;;;;5093717;28;20375;-77
2023/03/07 07:53:43;;;;;;;;;;;4.50;78.90;;;;;;5099070;28;19993;-77
2023/03/07 07:56:10;;;;;;;;;;;4.60;79.00;;;;;;5091029;28;19928;-75
2023/03/07 07:58:36;;;;;;;;;;;4.60;79.00;;;;;;5098016;28;19973;-77
2023/03/07 08:01:11;;;;;;;;;;;4.60;78.90;;;;;;5096961;28;19976;-76
2023/03/07 08:03:38;;;;;;;;;;;4.60;78.70;;;;;;5093610;28;20498;-78
2023/03/07 08:06:04;;;;;;;;;;;4.60;78.60;;;;;;5092931;28;19969;-78
2023/03/07 08:08:31;;;;;;;;;;;4.60;78.60;;;;;;5087523;28;20302;-77
2023/03/07 08:10:59;;;;;;;;;;;4.60;78.60;;;;;;5085736;28;20880;-78
2023/03/07 08:13:25;;;;;;;;;;;4.70;78.50;;;;;;5085942;28;19928;-76
2023/03/07 08:15:52;;;;;;;;;;;4.70;78.50;;;;;;5085052;28;19928;-78
2023/03/07 08:18:18;;;;;;;;;;;4.70;78.40;;;;;;5094160;28;19928;-76
2023/03/07 08:20:45;;;;;;;;;;;4.70;78.20;;;;;;5096562;28;19932;-77
2023/03/07 08:23:12;;;;;;;;;;;4.70;78.10;;;;;;5089600;28;19928;-79
2023/03/07 08:25:38;;;;;;;;;;;4.70;78.10;;;;;;5094482;28;19982;-77
2023/03/07 08:28:06;;;;;;;;;;;4.70;77.90;;;;;;5088681;28;19932;-78
2023/03/07 08:30:34;;;;;;;;;;;4.70;77.80;;;;;;5093850;28;19963;-77
2023/03/07 08:33:01;;;;;;;;;;;4.80;77.80;;;;;;5105297;28;19942;-76
2023/03/07 08:35:28;;;;;;;;;;;4.80;77.80;;;;;;5102530;27;20381;-78
2023/03/07 08:37:55;;;;;;;;;;;4.80;77.80;;;;;;5100621;27;20435;-78
2023/03/07 08:40:22;;;;;;;;;;;4.80;77.80;;;;;;5105521;27;19936;-77
2023/03/07 08:42:49;;;;;;;;;;;4.80;77.70;;;;;;5102838;28;19932;-76
2023/03/07 08:45:17;;;;;;;;;;;4.80;77.70;;;;;;5097192;28;19942;-77
2023/03/07 08:47:44;;;;;;;;;;;4.80;77.50;;;;;;5097488;27;19938;-78
2023/03/07 08:50:11;;;;;;;;;;;4.90;77.50;;;;;;5098712;28;20351;-79
2023/03/07 08:52:37;;;;;;;;;;;4.90;77.40;;;;;;5095503;27;20027;-77
2023/03/07 08:55:04;;;;;;;;;;;4.90;77.30;;;;;;5100410;28;19931;-77
2023/03/07 08:57:32;;;;;;;;;;;4.90;77.30;;;;;;5099561;28;19927;-77
2023/03/07 08:59:58;;;;;;;;;;;4.90;77.20;;;;;;5097726;28;19984;-77
2023/03/07 09:02:26;;;;;;;;;;;4.90;77.10;;;;;;5098649;27;19927;-77
2023/03/07 09:04:53;;;;;;;;;;;5.00;76.90;;;;;;5088688;28;21244;-77
2023/03/07 09:07:19;;;;;;;;;;;5.00;76.80;;;;;;5101956;28;19928;-77
2023/03/07 09:09:46;;;;;;;;;;;5.00;76.80;;;;;;5087832;28;19943;-76
2023/03/07 09:12:12;;;;;;;;;;;5.00;76.80;;;;;;5089530;28;20481;-77
2023/03/07 09:14:39;;;;;;;;;;;5.00;76.70;;;;;;5082331;28;20017;-78
2023/03/07 09:17:05;;;;;;;;;;;5.00;76.50;;;;;;5091878;27;19981;-78
2023/03/07 09:19:34;;;;;;;;;;;5.00;76.40;;;;;;5089622;27;20016;-76
2023/03/07 09:22:00;;;;;;;;;;;5.00;76.20;;;;;;5081157;28;19996;-77
2023/03/07 09:24:27;;;;;;;;;;;5.10;76.20;;;;;;5088838;28;19935;-76
2023/03/07 09:26:53;;;;;;;;;;;5.10;76.20;;;;;;5091462;27;19939;-77
2023/03/07 09:29:20;;;;;;;;;;;5.10;76.10;;;;;;5097183;28;20305;-80
2023/03/07 09:31:46;;;;;;;;;;;5.10;76.10;;;;;;5092676;27;19928;-78
2023/03/07 09:34:13;;;;;;;;;;;5.10;76.20;;;;;;5098825;27;19927;-78
2023/03/07 09:36:41;;;;;;;;;;;5.10;76.20;;;;;;5090337;28;19991;-77
2023/03/07 09:39:13;;;;;;;;;;;5.10;76.10;;;;;;5091314;28;19928;-77
2023/03/07 09:41:47;;;;;;;;;;;5.10;76.10;;;;;;5093552;28;20423;-78
2023/03/07 09:44:19;;;;;;;;;;;5.20;76.30;;;;;;5099456;27;19928;-78
2023/03/07 09:46:54;;;;;;;;;;;5.20;76.10;;;;;;5099776;27;20298;-78
2023/03/07 09:49:21;;;;;;;;;;;5.20;76.10;;;;;;5102573;27;19973;-78
2023/03/07 09:51:50;;;;;;;;;;;5.20;76.00;;;;;;5095253;28;19928;-79
2023/03/07 09:54:18;;;;;;;;;;;5.20;76.00;;;;;;5098250;28;19992;-78
2023/03/07 09:56:47;;;;;;;;;;;5.20;75.60;;;;;;5090994;27;19928;-78
2023/03/07 09:59:20;;;;;;;;;;;5.20;75.50;;;;;;5096746;27;19928;-78
2023/03/07 10:01:49;;;;;;;;;;;5.20;75.70;;;;;;5098162;27;19943;-78
2023/03/07 10:04:19;;;;;;;;;;;5.20;75.60;;;;;;5092559;28;20547;-78
2023/03/07 10:06:49;;;;;;;;;;;5.30;75.50;;;;;;5093892;28;19932;-78
2023/03/07 10:09:18;;;;;;;;;;;5.30;75.30;;;;;;5093185;28;20341;-78
2023/03/07 10:11:50;;;;;;;;;;;5.30;75.30;;;;;;5092531;27;20024;-78
2023/03/07 10:14:31;;;;;;;;;;;5.30;75.10;;;;;;5091517;28;20374;-77
2023/03/07 10:17:02;;;;;;;;;;;5.40;75.10;;;;;;5092418;27;19927;-77
2023/03/07 10:19:35;;;;;;;;;;;5.40;74.90;;;;;;5099777;28;19931;-78
2023/03/07 10:22:05;;;;;;;;;;;5.40;74.70;;;;;;5090743;28;19927;-78
2023/03/07 10:24:46;;;;;;;;;;;5.40;74.50;;;;;;5097630;28;19935;-78
2023/03/07 10:27:14;;;;;;;;;;;5.50;74.60;;;;;;5094767;28;19988;-79
2023/03/07 10:29:44;;;;;;;;;;;5.50;74.60;;;;;;5094593;27;19928;-77
2023/03/07 10:32:16;;;;;;;;;;;5.50;74.10;;;;;;5095406;27;19973;-78
2023/03/07 10:34:42;;;;;;;;;;;5.50;74.00;;;;;;5096734;28;19939;-79
2023/03/07 10:37:12;;;;;;;;;;;5.50;73.20;;;;;;5100948;28;19989;-79
2023/03/07 10:39:43;;;;;;;;;;;5.60;72.90;;;;;;5095400;28;21030;-77
2023/03/07 10:42:10;;;;;;;;;;;5.60;72.90;;;;;;5095347;28;19939;-78
2023/03/07 10:44:37;;;;;;;;;;;5.60;72.70;;;;;;5098757;28;19985;-79
2023/03/07 10:47:03;;;;;;;;;;;5.60;72.60;;;;;;5093908;27;19997;-77
2023/03/07 10:49:32;;;;;;;;;;;5.70;72.40;;;;;;5096615;27;19927;-78
2023/03/07 10:52:00;;;;;;;;;;;5.70;72.20;;;;;;5093805;28;20390;-78
2023/03/07 10:54:32;;;;;;;;;;;5.70;71.90;;;;;;5089792;28;20320;-79
2023/03/07 10:57:11;;;;;;;;;;;5.80;71.40;;;;;;5093678;27;19928;-78
2023/03/07 10:59:38;;;;;;;;;;;5.90;71.30;;;;;;5090352;28;19928;-77
2023/03/07 11:02:25;;;;;;;;;;;5.90;71.10;;;;;;5075248;28;20355;-78
2023/03/07 11:04:52;;;;;;;;;;;5.90;70.90;;;;;;5075298;28;20534;-77
2023/03/07 11:07:26;;;;;;;;;;;6.00;70.50;;;;;;5073178;28;19935;-78
2023/03/07 11:09:53;;;;;;;;;;;6.10;70.40;;;;;;5073270;28;19932;-80
2023/03/07 11:12:22;;;;;;;;;;;6.10;70.10;;;;;;5073014;28;19928;-78
2023/03/07 11:14:49;;;;;;;;;;;6.10;69.90;;;;;;5074636;28;19936;-77
2023/03/07 11:17:18;;;;;;;;;;;6.20;69.50;;;;;;5071969;28;19933;-78
2023/03/07 11:19:46;;;;;;;;;;;6.10;69.40;;;;;;5080916;28;19936;-77
2023/03/07 11:22:17;;;;;;;;;;;6.20;69.00;;;;;;5075403;28;19967;-78
2023/03/07 11:24:48;;;;;;;;;;;6.20;69.30;;;;;;5076429;28;20092;-76
2023/03/07 11:27:20;;;;;;;;;;;6.20;69.30;;;;;;5069044;28;20448;-78
2023/03/07 11:30:04;;;;;;;;;;;6.20;68.90;;;;;;5078214;28;19935;-78
2023/03/07 11:32:31;;;;;;;;;;;6.20;68.80;;;;;;5092242;28;19936;-77
2023/03/07 11:34:59;;;;;;;;;;;6.20;68.50;;;;;;5097161;28;19927;-77
2023/03/07 11:37:29;;;;;;;;;;;6.20;68.40;;;;;;5094944;28;19928;-79
2023/03/07 11:40:11;;;;;;;;;;;6.30;68.50;;;;;;5096387;28;19931;-77
2023/03/07 11:42:40;;;;;;;;;;;6.40;68.40;;;;;;5090140;28;19935;-78
2023/03/07 11:45:19;;;;;;;;;;;6.40;68.40;;;;;;5089727;28;20401;-77
2023/03/07 11:47:48;;;;;;;;;;;6.50;68.30;;;;;;5087762;28;19970;-78
2023/03/07 11:50:17;;;;;;;;;;;6.60;67.80;;;;;;5086759;28;19928;-76
2023/03/07 11:52:55;;;;;;;;;;;6.70;67.30;;;;;;5092729;28;19932;-79
2023/03/07 11:55:25;;;;;;;;;;;6.70;67.20;;;;;;5095537;28;19927;-78
2023/03/07 11:58:00;;;;;;;;;;;6.80;66.80;;;;;;5094213;28;19927;-78
2023/03/07 12:00:32;;;;;;;;;;;6.90;67.00;;;;;;5083135;28;19981;-78
2023/03/07 12:03:25;;;;;;;;;;;7.00;67.10;;;;;;5081924;28;20370;-77
2023/03/07 12:06:03;;;;;;;;;;;7.10;66.40;;;;;;5055929;28;19928;-78
2023/03/07 12:08:37;;;;;;;;;;;7.20;66.10;;;;;;5090700;28;19992;-79
2023/03/07 12:11:21;;;;;;;;;;;7.30;65.90;;;;;;5097727;28;19927;-78
2023/03/07 12:13:55;;;;;;;;;;;7.40;65.10;;;;;;5099335;28;19939;-80
2023/03/07 12:16:27;;;;;;;;;;;7.50;65.20;;;;;;5092808;28;19939;-78
2023/03/07 12:19:01;;;;;;;;;;;7.60;65.00;;;;;;5088094;28;21146;-78
2023/03/07 12:21:45;;;;;;;;;;;7.60;64.80;;;;;;5090078;28;19997;-83
2023/03/07 12:24:15;;;;;;;;;;;7.70;64.80;;;;;;5089771;28;19928;-80
2023/03/07 12:26:45;;;;;;;;;;;7.70;64.70;;;;;;5089187;28;19928;-75
2023/03/07 12:29:15;;;;;;;;;;;7.70;64.20;;;;;;5095744;28;19935;-75
2023/03/07 12:31:45;;;;;;;;;;;7.80;63.80;;;;;;5102211;27;20469;-75
2023/03/07 12:34:14;;;;;;;;;;;7.80;63.30;;;;;;5098968;28;20427;-76
2023/03/07 12:36:44;;;;;;;;;;;7.80;63.30;;;;;;5094541;28;19934;-76
2023/03/07 12:39:15;;;;;;;;;;;7.80;63.50;;;;;;5102945;28;20028;-75
2023/03/07 12:41:52;;;;;;;;;;;7.90;63.60;;;;;;5103189;28;19931;-75
2023/03/07 12:44:25;;;;;;;;;;;7.80;63.10;;;;;;5095309;27;19928;-75
2023/03/07 12:46:56;;;;;;;;;;;7.80;63.60;;;;;;5099682;27;19953;-76
2023/03/07 12:49:27;;;;;;;;;;;7.70;63.20;;;;;;5100868;27;19927;-75
2023/03/07 12:51:54;;;;;;;;;;;7.80;63.80;;;;;;5090425;28;20022;-75
2023/03/07 12:54:23;;;;;;;;;;;7.80;63.70;;;;;;5093415;28;20449;-76
2023/03/07 12:56:52;;;;;;;;;;;7.70;64.00;;;;;;5095952;27;19981;-76
2023/03/07 12:59:20;;;;;;;;;;;7.80;64.10;;;;;;5096713;27;20027;-74
2023/03/07 13:01:48;;;;;;;;;;;7.80;64.00;;;;;;5103808;28;19932;-74
2023/03/07 13:04:18;;;;;;;;;;;7.90;64.00;;;;;;5094601;27;19935;-75
2023/03/07 13:06:45;;;;;;;;;;;7.90;63.60;;;;;;5096984;28;20476;-75
2023/03/07 13:09:16;;;;;;;;;;;7.90;63.50;;;;;;5095430;27;19951;-75
2023/03/07 13:11:58;;;;;;;;;;;8.00;63.90;;;;;;5094783;27;19931;-75
2023/03/07 13:14:37;;;;;;;;;;;8.10;63.60;;;;;;5093380;28;19928;-75
2023/03/07 13:17:03;;;;;;;;;;;8.10;63.00;;;;;;5090040;27;19981;-75
2023/03/07 13:19:50;;;;;;;;;;;8.20;63.00;;;;;;5095866;28;19935;-75
2023/03/07 13:22:35;;;;;;;;;;;8.20;62.70;;;;;;5095673;28;19981;-75
2023/03/07 13:25:16;;;;;;;;;;;8.30;62.80;;;;;;5095142;28;19928;-75
2023/03/07 13:27:45;;;;;;;;;;;8.30;62.50;;;;;;5100966;28;19988;-75
2023/03/07 13:30:17;;;;;;;;;;;8.40;62.10;;;;;;5100149;28;19953;-76
2023/03/07 13:32:56;;;;;;;;;;;8.50;61.50;;;;;;5097683;28;19938;-75
2023/03/07 13:35:45;;;;;;;;;;;8.50;61.70;;;;;;5096022;28;19953;-75
2023/03/07 13:38:26;;;;;;;;;;;8.50;61.30;;;;;;5101342;28;19935;-76
2023/03/07 13:40:55;;;;;;;;;;;8.50;61.20;;;;;;5111492;27;19932;-75
2023/03/07 13:43:58;;;;;;;;;;;8.50;61.00;;;;;;5103667;27;19935;-75
2023/03/07 13:46:30;;;;;;;;;;;8.50;60.80;;;;;;5097872;28;19932;-76
2023/03/07 13:49:01;;;;;;;;;;;8.50;60.90;;;;;;5094390;27;21193;-76
2023/03/07 13:51:28;;;;;;;;;;;8.50;61.00;;;;;;5092921;28;20014;-76
2023/03/07 13:53:55;;;;;;;;;;;8.40;60.90;;;;;;5098529;28;19992;-76
2023/03/07 13:56:25;;;;;;;;;;;8.40;61.20;;;;;;5103076;28;19931;-76
2023/03/07 13:58:55;;;;;;;;;;;8.40;61.10;;;;;;5093763;28;20042;-78
2023/03/07 14:01:23;;;;;;;;;;;8.40;61.50;;;;;;5085466;28;20435;-78
2023/03/07 14:03:51;;;;;;;;;;;8.30;61.80;;;;;;5083810;28;19932;-77
2023/03/07 14:06:20;;;;;;;;;;;8.30;62.30;;;;;;5095582;28;19934;-77
2023/03/07 14:08:47;;;;;;;;;;;8.30;62.10;;;;;;5088304;28;20498;-77
2023/03/07 14:11:16;;;;;;;;;;;8.20;62.50;;;;;;5085857;27;20020;-77
2023/03/07 14:13:55;;;;;;;;;;;8.20;62.60;;;;;;5089757;28;19927;-81
2023/03/07 14:16:31;;;;;;;;;;;8.10;62.30;;;;;;5081748;28;19927;-79
2023/03/07 14:19:04;;;;;;;;;;;8.10;62.40;;;;;;5085425;28;19928;-78
2023/03/07 14:21:37;;;;;;;;;;;8.10;62.20;;;;;;5090163;28;20019;-79
2023/03/07 14:24:14;;;;;;;;;;;8.10;62.30;;;;;;5092019;28;19941;-79
2023/03/07 14:26:43;;;;;;;;;;;8.10;62.50;;;;;;5093937;28;20450;-79
2023/03/07 14:29:14;;;;;;;;;;;8.10;62.30;;;;;;5097091;28;20304;-78
2023/03/07 14:31:42;;;;;;;;;;;8.10;61.70;;;;;;5093448;27;19928;-79
2023/03/07 14:34:16;;;;;;;;;;;8.00;61.20;;;;;;5093967;28;19931;-78
2023/03/07 14:36:43;;;;;;;;;;;8.10;61.30;;;;;;5096145;28;19935;-78
2023/03/07 14:39:12;;;;;;;;;;;8.00;61.00;;;;;;5087836;28;19935;-80
2023/03/07 14:41:41;;;;;;;;;;;8.00;61.00;;;;;;5092640;28;19928;-78